sensor_id;sensor_type;location;lat;lon;timestamp;pressure;altitude;pressure_sealevel;temperature;humidity
56831;BME280;42713;42.676;23.352;2022-12-18T00:02:06;95505.97;;;5.85;87.55
56831;BME280;42713;42.676;23.352;2022-12-18T00:04:32;95535.75;;;5.83;87.85
56831;BME280;42713;42.676;23.352;2022-12-18T00:06:57;95536.13;;;5.73;87.68
56831;BME280;42713;42.676;23.352;2022-12-18T00:09:24;95524.22;;;5.64;88.32
56831;BME280;42713;42.676;23.352;2022-12-18T00:11:49;95513.41;;;5.60;87.60
56831;BME280;42713;42.676;23.352;2022-12-18T00:14:15;95529.00;;;5.60;88.46
56831;BME280;42713;42.676;23.352;2022-12-18T00:16:43;95524.63;;;5.60;88.46
56831;BME280;42713;42.676;23.352;2022-12-18T00:19:09;95551.41;;;5.61;86.82
56831;BME280;42713;42.676;23.352;2022-12-18T00:21:35;95529.84;;;5.60;87.21
56831;BME280;42713;42.676;23.352;2022-12-18T00:24:01;95539.97;;;5.55;87.44
56831;BME280;42713;42.676;23.352;2022-12-18T00:26:29;95551.50;;;5.46;87.35
56831;BME280;42713;42.676;23.352;2022-12-18T00:28:58;95548.91;;;5.46;87.24
56831;BME280;42713;42.676;23.352;2022-12-18T00:31:25;95557.09;;;5.43;87.10
56831;BME280;42713;42.676;23.352;2022-12-18T00:33:51;95555.25;;;5.37;86.98
56831;BME280;42713;42.676;23.352;2022-12-18T00:36:27;95569.91;;;5.23;87.41
56831;BME280;42713;42.676;23.352;2022-12-18T00:38:54;95571.34;;;5.25;87.20
56831;BME280;42713;42.676;23.352;2022-12-18T00:41:20;95563.19;;;5.28;86.92
56831;BME280;42713;42.676;23.352;2022-12-18T00:44:06;95557.31;;;5.20;87.21
56831;BME280;42713;42.676;23.352;2022-12-18T00:46:33;95556.88;;;5.16;87.04
56831;BME280;42713;42.676;23.352;2022-12-18T00:48:59;95557.31;;;5.20;86.93
56831;BME280;42713;42.676;23.352;2022-12-18T00:51:25;95553.72;;;5.21;86.57
56831;BME280;42713;42.676;23.352;2022-12-18T00:53:51;95560.03;;;5.11;85.55
56831;BME280;42713;42.676;23.352;2022-12-18T00:56:17;95565.41;;;5.10;85.53
56831;BME280;42713;42.676;23.352;2022-12-18T00:58:42;95555.31;;;4.93;86.19
56831;BME280;42713;42.676;23.352;2022-12-18T01:01:07;95557.69;;;4.95;86.06
56831;BME280;42713;42.676;23.352;2022-12-18T01:03:34;95571.72;;;5.01;86.22
56831;BME280;42713;42.676;23.352;2022-12-18T01:06:11;95581.00;;;5.10;85.65
56831;BME280;42713;42.676;23.352;2022-12-18T01:08:37;95594.25;;;4.93;85.43
56831;BME280;42713;42.676;23.352;2022-12-18T01:11:14;95605.81;;;4.76;86.18
56831;BME280;42713;42.676;23.352;2022-12-18T01:13:40;95576.69;;;4.74;85.72
56831;BME280;42713;42.676;23.352;2022-12-18T01:16:05;95582.41;;;4.69;86.51
56831;BME280;42713;42.676;23.352;2022-12-18T01:18:31;95590.09;;;4.77;86.23
56831;BME280;42713;42.676;23.352;2022-12-18T01:20:57;95587.50;;;4.77;85.94
56831;BME280;42713;42.676;23.352;2022-12-18T01:23:26;95587.28;;;4.79;86.31
56831;BME280;42713;42.676;23.352;2022-12-18T01:25:51;95597.94;;;4.84;86.13
56831;BME280;42713;42.676;23.352;2022-12-18T01:28:17;95600.16;;;4.87;85.73
56831;BME280;42713;42.676;23.352;2022-12-18T01:30:42;95600.69;;;4.82;85.07
56831;BME280;42713;42.676;23.352;2022-12-18T01:33:07;95594.09;;;4.80;85.08
56831;BME280;42713;42.676;23.352;2022-12-18T01:35:40;95602.78;;;4.72;85.02
56831;BME280;42713;42.676;23.352;2022-12-18T01:38:05;95608.38;;;4.69;85.69
56831;BME280;42713;42.676;23.352;2022-12-18T01:40:31;95607.97;;;4.72;85.42
56831;BME280;42713;42.676;23.352;2022-12-18T01:42:56;95632.28;;;4.64;85.52
56831;BME280;42713;42.676;23.352;2022-12-18T01:45:25;95617.25;;;4.60;85.23
56831;BME280;42713;42.676;23.352;2022-12-18T01:47:55;95616.34;;;4.52;85.88
56831;BME280;42713;42.676;23.352;2022-12-18T01:50:41;95620.22;;;4.42;86.08
56831;BME280;42713;42.676;23.352;2022-12-18T01:53:19;95609.94;;;4.33;86.26
56831;BME280;42713;42.676;23.352;2022-12-18T01:55:55;95605.38;;;4.35;86.40
56831;BME280;42713;42.676;23.352;2022-12-18T01:58:27;95614.59;;;4.23;86.34
56831;BME280;42713;42.676;23.352;2022-12-18T02:00:55;95626.16;;;4.20;86.94
56831;BME280;42713;42.676;23.352;2022-12-18T02:03:21;95634.47;;;4.16;87.42
56831;BME280;42713;42.676;23.352;2022-12-18T02:08:36;95629.97;;;4.10;86.42
56831;BME280;42713;42.676;23.352;2022-12-18T02:16:51;95649.63;;;4.19;86.33
56831;BME280;42713;42.676;23.352;2022-12-18T02:27:50;95618.53;;;3.89;86.81
56831;BME280;42713;42.676;23.352;2022-12-18T02:30:17;95669.66;;;3.95;87.41
56831;BME280;42713;42.676;23.352;2022-12-18T02:32:50;95663.56;;;3.88;87.19
56831;BME280;42713;42.676;23.352;2022-12-18T02:35:22;95630.41;;;3.83;88.03
56831;BME280;42713;42.676;23.352;2022-12-18T02:37:49;95644.72;;;3.79;87.79
56831;BME280;42713;42.676;23.352;2022-12-18T02:40:17;95634.97;;;3.81;87.44
56831;BME280;42713;42.676;23.352;2022-12-18T02:42:42;95646.25;;;3.88;87.61
56831;BME280;42713;42.676;23.352;2022-12-18T02:45:08;95649.53;;;3.97;87.52
56831;BME280;42713;42.676;23.352;2022-12-18T02:47:38;95657.16;;;3.99;87.21
56831;BME280;42713;42.676;23.352;2022-12-18T02:56:01;95647.28;;;3.79;87.47
56831;BME280;42713;42.676;23.352;2022-12-18T02:59:11;95658.81;;;3.77;87.88
56831;BME280;42713;42.676;23.352;2022-12-18T03:02:06;95659.09;;;3.82;88.08
56831;BME280;42713;42.676;23.352;2022-12-18T03:04:42;95660.69;;;3.83;87.61
56831;BME280;42713;42.676;23.352;2022-12-18T03:07:18;95674.31;;;4.00;86.89
56831;BME280;42713;42.676;23.352;2022-12-18T03:09:49;95666.47;;;4.08;86.67
56831;BME280;42713;42.676;23.352;2022-12-18T03:12:21;95680.75;;;4.19;86.10
56831;BME280;42713;42.676;23.352;2022-12-18T03:15:13;95659.03;;;4.20;85.38
56831;BME280;42713;42.676;23.352;2022-12-18T03:17:45;95672.00;;;4.20;85.23
56831;BME280;42713;42.676;23.352;2022-12-18T03:20:15;95669.84;;;4.09;84.97
56831;BME280;42713;42.676;23.352;2022-12-18T03:22:44;95674.31;;;4.00;85.24
56831;BME280;42713;42.676;23.352;2022-12-18T03:25:13;95699.41;;;3.99;85.71
56831;BME280;42713;42.676;23.352;2022-12-18T03:27:45;95692.28;;;4.01;85.66
56831;BME280;42713;42.676;23.352;2022-12-18T03:30:13;95674.41;;;3.92;85.47
56831;BME280;42713;42.676;23.352;2022-12-18T03:32:44;95695.13;;;3.92;85.32
56831;BME280;42713;42.676;23.352;2022-12-18T03:35:19;95688.22;;;3.84;85.45
56831;BME280;42713;42.676;23.352;2022-12-18T03:37:46;95722.59;;;3.78;85.77
56831;BME280;42713;42.676;23.352;2022-12-18T03:40:11;95704.31;;;3.79;85.96
56831;BME280;42713;42.676;23.352;2022-12-18T03:47:57;95711.25;;;3.79;84.64
56831;BME280;42713;42.676;23.352;2022-12-18T03:55:53;95733.34;;;3.74;84.16
56831;BME280;42713;42.676;23.352;2022-12-18T03:58:23;95727.25;;;3.67;83.61
56831;BME280;42713;42.676;23.352;2022-12-18T04:00:52;95742.72;;;3.76;83.75
56831;BME280;42713;42.676;23.352;2022-12-18T04:03:19;95736.44;;;3.70;83.38
56831;BME280;42713;42.676;23.352;2022-12-18T04:05:48;95725.44;;;3.68;83.52
56831;BME280;42713;42.676;23.352;2022-12-18T04:08:15;95722.22;;;3.66;84.03
56831;BME280;42713;42.676;23.352;2022-12-18T04:10:41;95728.38;;;3.65;84.14
56831;BME280;42713;42.676;23.352;2022-12-18T04:13:07;95741.44;;;3.71;83.79
56831;BME280;42713;42.676;23.352;2022-12-18T04:15:36;95727.66;;;3.56;83.15
56831;BME280;42713;42.676;23.352;2022-12-18T04:18:02;95741.06;;;3.60;82.54
56831;BME280;42713;42.676;23.352;2022-12-18T04:20:28;95747.84;;;3.61;82.52
56831;BME280;42713;42.676;23.352;2022-12-18T04:22:54;95743.91;;;3.65;82.49
56831;BME280;42713;42.676;23.352;2022-12-18T04:25:20;95755.78;;;3.59;82.30
56831;BME280;42713;42.676;23.352;2022-12-18T04:27:47;95751.22;;;3.61;82.84
56831;BME280;42713;42.676;23.352;2022-12-18T04:30:13;95750.97;;;3.56;82.68
56831;BME280;42713;42.676;23.352;2022-12-18T04:32:38;95764.88;;;3.55;81.99
56831;BME280;42713;42.676;23.352;2022-12-18T04:35:04;95782.84;;;3.56;82.11
56831;BME280;42713;42.676;23.352;2022-12-18T04:37:32;95764.25;;;3.53;82.75
56831;BME280;42713;42.676;23.352;2022-12-18T04:39:59;95762.16;;;3.48;81.48
56831;BME280;42713;42.676;23.352;2022-12-18T04:42:24;95771.25;;;3.44;81.67
56831;BME280;42713;42.676;23.352;2022-12-18T04:44:50;95768.50;;;3.46;80.91
56831;BME280;42713;42.676;23.352;2022-12-18T04:47:15;95772.59;;;3.40;80.56
56831;BME280;42713;42.676;23.352;2022-12-18T04:49:41;95797.66;;;3.39;80.30
56831;BME280;42713;42.676;23.352;2022-12-18T04:52:06;95812.25;;;3.32;80.85
56831;BME280;42713;42.676;23.352;2022-12-18T04:54:32;95797.38;;;3.34;80.85
56831;BME280;42713;42.676;23.352;2022-12-18T04:56:57;95792.00;;;3.36;80.04
56831;BME280;42713;42.676;23.352;2022-12-18T04:59:23;95804.97;;;3.36;79.29
56831;BME280;42713;42.676;23.352;2022-12-18T05:01:49;95815.31;;;3.36;79.19
56831;BME280;42713;42.676;23.352;2022-12-18T05:04:14;95807.72;;;3.34;79.20
56831;BME280;42713;42.676;23.352;2022-12-18T05:06:39;95824.75;;;3.29;78.83
56831;BME280;42713;42.676;23.352;2022-12-18T05:09:05;95805.31;;;3.33;78.91
56831;BME280;42713;42.676;23.352;2022-12-18T05:11:31;95824.06;;;3.35;78.81
56831;BME280;42713;42.676;23.352;2022-12-18T05:13:56;95815.03;;;3.31;78.95
56831;BME280;42713;42.676;23.352;2022-12-18T05:16:22;95839.50;;;3.28;79.17
56831;BME280;42713;42.676;23.352;2022-12-18T05:18:47;95836.28;;;3.18;79.17
56831;BME280;42713;42.676;23.352;2022-12-18T05:21:12;95824.00;;;3.11;79.86
56831;BME280;42713;42.676;23.352;2022-12-18T05:23:38;95841.47;;;3.09;79.69
56831;BME280;42713;42.676;23.352;2022-12-18T05:26:05;95831.94;;;3.10;80.35
56831;BME280;42713;42.676;23.352;2022-12-18T05:28:34;95836.31;;;3.09;80.34
56831;BME280;42713;42.676;23.352;2022-12-18T05:31:01;95842.31;;;3.10;80.47
56831;BME280;42713;42.676;23.352;2022-12-18T05:33:31;95851.97;;;3.16;80.26
56831;BME280;42713;42.676;23.352;2022-12-18T05:35:59;95872.41;;;3.11;79.91
56831;BME280;42713;42.676;23.352;2022-12-18T05:38:26;95878.06;;;3.06;79.38
56831;BME280;42713;42.676;23.352;2022-12-18T05:40:52;95884.38;;;3.04;79.94
56831;BME280;42713;42.676;23.352;2022-12-18T05:43:19;95867.38;;;3.09;79.33
56831;BME280;42713;42.676;23.352;2022-12-18T05:45:46;95858.66;;;3.02;79.22
56831;BME280;42713;42.676;23.352;2022-12-18T05:48:12;95858.34;;;3.05;79.01
56831;BME280;42713;42.676;23.352;2022-12-18T05:50:39;95858.47;;;3.04;79.42
56831;BME280;42713;42.676;23.352;2022-12-18T05:53:06;95879.88;;;2.89;79.50
56831;BME280;42713;42.676;23.352;2022-12-18T05:55:37;95862.25;;;2.93;79.54
56831;BME280;42713;42.676;23.352;2022-12-18T05:58:04;95869.97;;;3.01;79.34
56831;BME280;42713;42.676;23.352;2022-12-18T06:00:31;95867.25;;;2.94;78.67
56831;BME280;42713;42.676;23.352;2022-12-18T06:02:57;95878.38;;;3.03;78.97
56831;BME280;42713;42.676;23.352;2022-12-18T06:05:23;95871.59;;;3.02;78.72
56831;BME280;42713;42.676;23.352;2022-12-18T06:07:48;95909.16;;;2.98;78.12
56831;BME280;42713;42.676;23.352;2022-12-18T06:10:14;95882.78;;;3.03;78.38
56831;BME280;42713;42.676;23.352;2022-12-18T06:12:39;95885.50;;;3.01;77.90
56831;BME280;42713;42.676;23.352;2022-12-18T06:15:06;95880.03;;;2.96;77.87
56831;BME280;42713;42.676;23.352;2022-12-18T06:17:33;95901.06;;;2.93;78.33
56831;BME280;42713;42.676;23.352;2022-12-18T06:19:58;95886.34;;;2.93;78.17
56831;BME280;42713;42.676;23.352;2022-12-18T06:22:25;95879.84;;;2.98;78.63
56831;BME280;42713;42.676;23.352;2022-12-18T06:24:50;95891.34;;;2.95;78.19
56831;BME280;42713;42.676;23.352;2022-12-18T06:27:16;95897.50;;;2.94;78.01
56831;BME280;42713;42.676;23.352;2022-12-18T06:29:42;95895.59;;;2.88;78.04
56831;BME280;42713;42.676;23.352;2022-12-18T06:32:07;95898.16;;;2.96;78.53
56831;BME280;42713;42.676;23.352;2022-12-18T06:34:33;95906.22;;;2.93;78.58
56831;BME280;42713;42.676;23.352;2022-12-18T06:36:59;95909.00;;;2.91;78.79
56831;BME280;42713;42.676;23.352;2022-12-18T06:39:26;95909.81;;;2.84;79.03
56831;BME280;42713;42.676;23.352;2022-12-18T06:41:52;95930.00;;;2.88;78.78
56831;BME280;42713;42.676;23.352;2022-12-18T06:44:18;95915.28;;;2.97;78.53
56831;BME280;42713;42.676;23.352;2022-12-18T06:46:43;95935.50;;;3.02;78.47
56831;BME280;42713;42.676;23.352;2022-12-18T06:49:09;95920.94;;;3.01;78.10
56831;BME280;42713;42.676;23.352;2022-12-18T06:51:35;95919.50;;;2.98;77.67
56831;BME280;42713;42.676;23.352;2022-12-18T06:54:00;95932.13;;;2.93;77.79
56831;BME280;42713;42.676;23.352;2022-12-18T06:56:26;95957.50;;;2.98;77.54
56831;BME280;42713;42.676;23.352;2022-12-18T06:58:53;95918.03;;;2.95;77.72
56831;BME280;42713;42.676;23.352;2022-12-18T07:01:18;95925.97;;;2.86;76.99
56831;BME280;42713;42.676;23.352;2022-12-18T07:03:44;95930.50;;;2.84;76.91
56831;BME280;42713;42.676;23.352;2022-12-18T07:06:18;95927.75;;;2.85;77.02
56831;BME280;42713;42.676;23.352;2022-12-18T07:08:44;95938.75;;;2.87;76.64
56831;BME280;42713;42.676;23.352;2022-12-18T07:11:10;95964.47;;;2.89;76.60
56831;BME280;42713;42.676;23.352;2022-12-18T07:13:35;95952.16;;;2.91;76.79
56831;BME280;42713;42.676;23.352;2022-12-18T07:16:09;95959.31;;;2.89;75.59
56831;BME280;42713;42.676;23.352;2022-12-18T07:18:36;95943.28;;;2.93;75.85
56831;BME280;42713;42.676;23.352;2022-12-18T07:21:07;95938.72;;;2.95;76.36
56831;BME280;42713;42.676;23.352;2022-12-18T07:23:35;95946.66;;;2.94;76.18
56831;BME280;42713;42.676;23.352;2022-12-18T07:26:05;95956.22;;;2.93;76.40
56831;BME280;42713;42.676;23.352;2022-12-18T07:28:32;95937.47;;;2.91;76.28
56831;BME280;42713;42.676;23.352;2022-12-18T07:31:05;95995.69;;;2.79;76.04
56831;BME280;42713;42.676;23.352;2022-12-18T07:33:32;95963.66;;;2.80;76.56
56831;BME280;42713;42.676;23.352;2022-12-18T07:36:01;95989.06;;;2.76;77.00
56831;BME280;42713;42.676;23.352;2022-12-18T07:38:28;95975.00;;;2.71;76.77
56831;BME280;42713;42.676;23.352;2022-12-18T07:40:53;95972.06;;;2.57;76.77
56831;BME280;42713;42.676;23.352;2022-12-18T07:43:19;95985.47;;;2.61;77.32
56831;BME280;42713;42.676;23.352;2022-12-18T07:45:44;95977.41;;;2.64;77.34
56831;BME280;42713;42.676;23.352;2022-12-18T07:48:10;95966.88;;;2.57;77.38
56831;BME280;42713;42.676;23.352;2022-12-18T07:50:36;95970.59;;;2.71;77.35
56831;BME280;42713;42.676;23.352;2022-12-18T07:53:01;95977.41;;;2.80;76.87
56831;BME280;42713;42.676;23.352;2022-12-18T07:55:29;95980.34;;;2.77;77.04
56831;BME280;42713;42.676;23.352;2022-12-18T07:57:55;95975.16;;;2.77;76.90
56831;BME280;42713;42.676;23.352;2022-12-18T08:00:21;95985.16;;;2.72;77.26
56831;BME280;42713;42.676;23.352;2022-12-18T08:02:46;95989.38;;;2.65;78.10
56831;BME280;42713;42.676;23.352;2022-12-18T08:05:12;96001.66;;;2.71;77.82
56831;BME280;42713;42.676;23.352;2022-12-18T08:07:38;96009.09;;;2.66;77.94
56831;BME280;42713;42.676;23.352;2022-12-18T08:10:05;96011.19;;;2.62;78.12
56831;BME280;42713;42.676;23.352;2022-12-18T08:12:31;96008.13;;;2.67;78.28
56831;BME280;42713;42.676;23.352;2022-12-18T08:14:57;96018.47;;;2.67;78.00
56831;BME280;42713;42.676;23.352;2022-12-18T08:17:22;96022.34;;;2.63;77.95
56831;BME280;42713;42.676;23.352;2022-12-18T08:19:48;96025.41;;;2.58;77.89
56831;BME280;42713;42.676;23.352;2022-12-18T08:22:13;96025.75;;;2.63;77.95
56831;BME280;42713;42.676;23.352;2022-12-18T08:24:45;96045.31;;;2.66;77.56
56831;BME280;42713;42.676;23.352;2022-12-18T08:27:14;96017.00;;;2.56;77.84
56831;BME280;42713;42.676;23.352;2022-12-18T08:29:48;96047.41;;;2.54;77.07
56831;BME280;42713;42.676;23.352;2022-12-18T08:32:40;96020.72;;;2.54;77.31
56831;BME280;42713;42.676;23.352;2022-12-18T08:35:17;96019.56;;;2.48;76.70
56831;BME280;42713;42.676;23.352;2022-12-18T08:37:51;96017.31;;;2.45;76.58
56831;BME280;42713;42.676;23.352;2022-12-18T08:40:23;96024.44;;;2.51;76.74
56831;BME280;42713;42.676;23.352;2022-12-18T08:42:48;96022.66;;;2.60;76.32
56831;BME280;42713;42.676;23.352;2022-12-18T08:45:33;96044.97;;;2.61;76.82
56831;BME280;42713;42.676;23.352;2022-12-18T08:47:59;96036.09;;;2.63;76.35
56831;BME280;42713;42.676;23.352;2022-12-18T08:50:24;96039.00;;;2.60;76.63
56831;BME280;42713;42.676;23.352;2022-12-18T08:52:49;96074.91;;;2.63;76.13
56831;BME280;42713;42.676;23.352;2022-12-18T08:55:15;96044.34;;;2.67;76.14
56831;BME280;42713;42.676;23.352;2022-12-18T08:57:40;96048.69;;;2.58;75.70
56831;BME280;42713;42.676;23.352;2022-12-18T09:00:06;96053.69;;;2.60;74.89
56831;BME280;42713;42.676;23.352;2022-12-18T09:02:32;96043.03;;;2.63;75.40
56831;BME280;42713;42.676;23.352;2022-12-18T09:05:01;96036.09;;;2.72;75.20
56831;BME280;42713;42.676;23.352;2022-12-18T09:07:27;96035.47;;;2.78;74.19
56831;BME280;42713;42.676;23.352;2022-12-18T09:09:52;96060.69;;;2.76;73.31
56831;BME280;42713;42.676;23.352;2022-12-18T09:12:18;96055.50;;;2.76;74.24
56831;BME280;42713;42.676;23.352;2022-12-18T09:14:43;96039.84;;;2.77;72.92
56831;BME280;42713;42.676;23.352;2022-12-18T09:17:09;96038.34;;;2.75;73.15
56831;BME280;42713;42.676;23.352;2022-12-18T09:19:35;96050.66;;;2.73;73.36
56831;BME280;42713;42.676;23.352;2022-12-18T09:22:01;96046.13;;;2.75;72.34
56831;BME280;42713;42.676;23.352;2022-12-18T09:24:26;96049.84;;;2.72;72.15
56831;BME280;42713;42.676;23.352;2022-12-18T09:26:55;96034.97;;;2.66;72.40
56831;BME280;42713;42.676;23.352;2022-12-18T09:29:21;96045.97;;;2.68;71.96
56831;BME280;42713;42.676;23.352;2022-12-18T09:31:47;96031.25;;;2.60;71.39
56831;BME280;42713;42.676;23.352;2022-12-18T09:34:13;96051.44;;;2.65;71.88
56831;BME280;42713;42.676;23.352;2022-12-18T09:36:38;96052.13;;;2.67;71.55
56831;BME280;42713;42.676;23.352;2022-12-18T09:39:04;96055.97;;;2.71;71.89
56831;BME280;42713;42.676;23.352;2022-12-18T09:41:47;96034.31;;;2.64;71.92
56831;BME280;42713;42.676;23.352;2022-12-18T09:44:29;96050.50;;;2.83;72.50
56831;BME280;42713;42.676;23.352;2022-12-18T09:47:13;96063.31;;;2.92;71.61
56831;BME280;42713;42.676;23.352;2022-12-18T09:49:44;96039.03;;;2.93;71.37
56831;BME280;42713;42.676;23.352;2022-12-18T09:52:56;96043.56;;;2.91;71.12
56831;BME280;42713;42.676;23.352;2022-12-18T09:55:25;96061.03;;;2.89;71.05
56831;BME280;42713;42.676;23.352;2022-12-18T09:58:02;96038.22;;;2.93;71.48
56831;BME280;42713;42.676;23.352;2022-12-18T10:00:29;96030.63;;;3.00;71.25
56831;BME280;42713;42.676;23.352;2022-12-18T10:03:02;96029.19;;;2.97;70.57
56831;BME280;42713;42.676;23.352;2022-12-18T10:11:20;96058.59;;;3.13;69.33
56831;BME280;42713;42.676;23.352;2022-12-18T10:13:52;96045.66;;;3.04;69.37
56831;BME280;42713;42.676;23.352;2022-12-18T10:16:38;96035.81;;;3.00;69.53
56831;BME280;42713;42.676;23.352;2022-12-18T10:19:35;96046.81;;;3.02;69.71
56831;BME280;42713;42.676;23.352;2022-12-18T10:22:31;96061.84;;;3.06;68.62
56831;BME280;42713;42.676;23.352;2022-12-18T10:27:55;96045.84;;;3.11;69.37
56831;BME280;42713;42.676;23.352;2022-12-18T10:30:23;96036.91;;;3.22;68.83
56831;BME280;42713;42.676;23.352;2022-12-18T10:32:50;96035.13;;;3.14;68.65
56831;BME280;42713;42.676;23.352;2022-12-18T10:35:34;96042.59;;;3.17;69.04
56831;BME280;42713;42.676;23.352;2022-12-18T10:43:28;96035.66;;;3.18;68.99
56831;BME280;42713;42.676;23.352;2022-12-18T10:48:28;96031.72;;;3.30;69.96
56831;BME280;42713;42.676;23.352;2022-12-18T10:50:55;96034.63;;;3.43;69.63
56831;BME280;42713;42.676;23.352;2022-12-18T10:53:29;96042.09;;;3.47;69.25
56831;BME280;42713;42.676;23.352;2022-12-18T10:55:59;96044.66;;;3.47;68.72
56831;BME280;42713;42.676;23.352;2022-12-18T10:58:33;96036.06;;;3.54;68.72
56831;BME280;42713;42.676;23.352;2022-12-18T11:01:15;96032.50;;;3.55;68.75
56831;BME280;42713;42.676;23.352;2022-12-18T11:03:44;96025.84;;;3.61;68.27
56831;BME280;42713;42.676;23.352;2022-12-18T11:06:21;96021.81;;;3.58;67.80
56831;BME280;42713;42.676;23.352;2022-12-18T11:09:04;96033.44;;;3.63;67.88
56831;BME280;42713;42.676;23.352;2022-12-18T11:11:31;96053.69;;;3.67;67.85
56831;BME280;42713;42.676;23.352;2022-12-18T11:14:17;96032.97;;;3.59;67.08
56831;BME280;42713;42.676;23.352;2022-12-18T11:16:45;96057.25;;;3.58;65.89
56831;BME280;42713;42.676;23.352;2022-12-18T11:19:17;96030.84;;;3.63;66.14
56831;BME280;42713;42.676;23.352;2022-12-18T11:21:45;96032.00;;;3.60;65.91
56831;BME280;42713;42.676;23.352;2022-12-18T11:24:22;96042.34;;;3.68;66.34
56831;BME280;42713;42.676;23.352;2022-12-18T11:26:50;96043.97;;;3.61;66.05
56831;BME280;42713;42.676;23.352;2022-12-18T11:29:18;96038.94;;;3.68;66.24
56831;BME280;42713;42.676;23.352;2022-12-18T11:31:47;96041.38;;;3.61;66.33
56831;BME280;42713;42.676;23.352;2022-12-18T11:34:22;96040.75;;;3.59;66.66
56831;BME280;42713;42.676;23.352;2022-12-18T11:36:51;96036.53;;;3.66;66.76
56831;BME280;42713;42.676;23.352;2022-12-18T11:42:14;96046.09;;;3.57;66.41
56831;BME280;42713;42.676;23.352;2022-12-18T11:44:57;96046.59;;;3.53;66.68
56831;BME280;42713;42.676;23.352;2022-12-18T11:47:44;96048.72;;;3.49;67.19
56831;BME280;42713;42.676;23.352;2022-12-18T11:50:17;96040.63;;;3.52;67.12
56831;BME280;42713;42.676;23.352;2022-12-18T11:52:44;96043.34;;;3.51;67.00
56831;BME280;42713;42.676;23.352;2022-12-18T11:55:23;96038.34;;;3.49;66.92
56831;BME280;42713;42.676;23.352;2022-12-18T12:00:24;96029.88;;;3.64;66.55
56831;BME280;42713;42.676;23.352;2022-12-18T12:06:11;96032.66;;;3.62;66.36
56831;BME280;42713;42.676;23.352;2022-12-18T12:09:09;96031.03;;;3.61;65.92
56831;BME280;42713;42.676;23.352;2022-12-18T12:17:14;96044.66;;;3.55;66.53
56831;BME280;42713;42.676;23.352;2022-12-18T12:25:21;96039.97;;;3.50;66.73
56831;BME280;42713;42.676;23.352;2022-12-18T12:31:01;96048.84;;;3.64;67.00
56831;BME280;42713;42.676;23.352;2022-12-18T12:36:41;96048.03;;;3.72;66.90
56831;BME280;42713;42.676;23.352;2022-12-18T12:39:13;96053.22;;;3.72;66.29
56831;BME280;42713;42.676;23.352;2022-12-18T12:41:42;96049.75;;;3.80;66.83
56831;BME280;42713;42.676;23.352;2022-12-18T12:44:34;96046.03;;;3.82;66.57
56831;BME280;42713;42.676;23.352;2022-12-18T12:47:24;96041.97;;;3.88;66.13
56831;BME280;42713;42.676;23.352;2022-12-18T12:49:52;96029.66;;;3.90;66.10
56831;BME280;42713;42.676;23.352;2022-12-18T12:52:30;96038.69;;;4.02;66.53
56831;BME280;42713;42.676;23.352;2022-12-18T12:54:58;96044.00;;;4.09;66.17
56831;BME280;42713;42.676;23.352;2022-12-18T12:57:34;96051.09;;;4.15;65.60
56831;BME280;42713;42.676;23.352;2022-12-18T13:00:12;96052.59;;;4.10;65.44
56831;BME280;42713;42.676;23.352;2022-12-18T13:02:56;96058.41;;;4.12;65.03
56831;BME280;42713;42.676;23.352;2022-12-18T13:08:31;96072.06;;;4.05;65.51
56831;BME280;42713;42.676;23.352;2022-12-18T13:10:58;96076.28;;;3.98;65.75
56831;BME280;42713;42.676;23.352;2022-12-18T13:13:54;96074.84;;;3.96;66.75
56831;BME280;42713;42.676;23.352;2022-12-18T13:16:22;96091.38;;;3.86;66.08
56831;BME280;42713;42.676;23.352;2022-12-18T13:18:52;96078.91;;;3.82;66.16
56831;BME280;42713;42.676;23.352;2022-12-18T13:21:29;96080.84;;;3.96;68.15
56831;BME280;42713;42.676;23.352;2022-12-18T13:23:56;96092.31;;;4.02;66.58
56831;BME280;42713;42.676;23.352;2022-12-18T13:31:15;96089.75;;;3.85;66.46
56831;BME280;42713;42.676;23.352;2022-12-18T13:34:19;96097.03;;;3.90;65.85
56831;BME280;42713;42.676;23.352;2022-12-18T13:36:46;96098.19;;;3.87;66.00
56831;BME280;42713;42.676;23.352;2022-12-18T13:41:45;96096.38;;;3.88;66.36
56831;BME280;42713;42.676;23.352;2022-12-18T13:44:31;96089.63;;;3.87;65.95
56831;BME280;42713;42.676;23.352;2022-12-18T13:47:02;96089.59;;;3.79;66.46
56831;BME280;42713;42.676;23.352;2022-12-18T13:49:39;96105.00;;;3.88;66.02
56831;BME280;42713;42.676;23.352;2022-12-18T13:52:22;96114.22;;;3.91;65.96
56831;BME280;42713;42.676;23.352;2022-12-18T13:54:59;96114.88;;;3.93;66.25
56831;BME280;42713;42.676;23.352;2022-12-18T13:59:53;96115.03;;;3.83;66.72
56831;BME280;42713;42.676;23.352;2022-12-18T14:02:31;96116.97;;;3.89;66.56
56831;BME280;42713;42.676;23.352;2022-12-18T14:05:02;96116.97;;;3.89;66.78
56831;BME280;42713;42.676;23.352;2022-12-18T14:07:28;96122.94;;;3.98;66.07
56831;BME280;42713;42.676;23.352;2022-12-18T14:09:57;96126.69;;;3.96;65.63
56831;BME280;42713;42.676;23.352;2022-12-18T14:12:28;96127.00;;;4.01;66.18
56831;BME280;42713;42.676;23.352;2022-12-18T14:18:02;96118.72;;;4.05;65.76
56831;BME280;42713;42.676;23.352;2022-12-18T14:20:31;96118.72;;;3.97;64.86
56831;BME280;42713;42.676;23.352;2022-12-18T14:22:58;96126.69;;;3.96;64.71
56831;BME280;42713;42.676;23.352;2022-12-18T14:25:26;96130.88;;;4.05;65.01
56831;BME280;42713;42.676;23.352;2022-12-18T14:27:53;96146.13;;;4.00;63.65
56831;BME280;42713;42.676;23.352;2022-12-18T14:30:27;96138.00;;;4.03;63.95
56831;BME280;42713;42.676;23.352;2022-12-18T14:35:30;96146.28;;;3.98;63.72
56831;BME280;42713;42.676;23.352;2022-12-18T14:40:43;96146.94;;;3.92;64.02
56831;BME280;42713;42.676;23.352;2022-12-18T14:43:12;96133.34;;;3.82;64.14
56831;BME280;42713;42.676;23.352;2022-12-18T14:45:43;96133.66;;;3.79;63.96
56831;BME280;42713;42.676;23.352;2022-12-18T14:48:19;96137.56;;;3.83;63.41
56831;BME280;42713;42.676;23.352;2022-12-18T14:50:57;96130.28;;;3.78;63.74
56831;BME280;42713;42.676;23.352;2022-12-18T14:55:58;96135.94;;;3.73;62.58